ヌーク の空港の天気 - METARとTAF

ヌーク空港 ( BGGH / GOH ) - グリーンランド ヌーク
飛行場実況気象(Metar)
観測時間08/25 16:50 WGST (08/25 18:50 UTC)
風向・風速北北西 7m/s
視程10km以上
天気現象
少しの雲 雲底高度 760m
全天の4割程度の雲 雲底高度 2130m
気温11℃
湿度54%
気圧1005hPa
METARBGGH 251850Z 33014KT 9999 FEW025 SCT070 11/02 Q1005
過去の天気等 Google飛行場航空写真 Wunderground天気予報

過去48時間のMETAR

飛行場予報(TAF)
発表時間: 8/25 09:21 WGST (8/25 11:21 UTC)
予報対象時間: 25日10時 WGST ~ 25日16時 WGST
風向・風速北北西 6m/s
視程10km以上
全天の4割程度の雲 雲底高度 460m
25日10時 WGST ~ 25日13時 WGST に一時的に
全天の8割程度の雲 雲底高度 370m
TAF BGGH 251121Z 2512/2518 33012KT 9999 SCT015
TEMPO 2512/2515 BKN012